sensor_id;sensor_type;location;lat;lon;timestamp;P1;durP1;ratioP1;P2;durP2;ratioP2
72235;SDS011;60146;52.498;13.462;2023-04-25T00:00:29;3.97;;;1.90;;
72235;SDS011;60146;52.498;13.462;2023-04-25T00:02:54;5.63;;;2.20;;
72235;SDS011;60146;52.498;13.462;2023-04-25T00:05:21;3.50;;;2.00;;
72235;SDS011;60146;52.498;13.462;2023-04-25T00:07:48;3.57;;;1.80;;
72235;SDS011;60146;52.498;13.462;2023-04-25T00:10:14;4.30;;;1.80;;
72235;SDS011;60146;52.498;13.462;2023-04-25T00:12:40;3.37;;;1.60;;
72235;SDS011;60146;52.498;13.462;2023-04-25T00:15:06;5.50;;;2.00;;
72235;SDS011;60146;52.498;13.462;2023-04-25T00:17:32;2.80;;;1.60;;
72235;SDS011;60146;52.498;13.462;2023-04-25T00:19:57;2.00;;;1.50;;
72235;SDS011;60146;52.498;13.462;2023-04-25T00:22:23;2.60;;;1.73;;
72235;SDS011;60146;52.498;13.462;2023-04-25T00:24:48;3.00;;;1.80;;
72235;SDS011;60146;52.498;13.462;2023-04-25T00:27:14;2.47;;;1.67;;
72235;SDS011;60146;52.498;13.462;2023-04-25T00:29:40;2.17;;;1.60;;
72235;SDS011;60146;52.498;13.462;2023-04-25T00:32:05;3.57;;;1.97;;
72235;SDS011;60146;52.498;13.462;2023-04-25T00:34:31;4.40;;;1.70;;
72235;SDS011;60146;52.498;13.462;2023-04-25T00:36:56;3.13;;;1.87;;
72235;SDS011;60146;52.498;13.462;2023-04-25T00:39:21;4.47;;;2.07;;
72235;SDS011;60146;52.498;13.462;2023-04-25T00:41:47;3.70;;;1.60;;
72235;SDS011;60146;52.498;13.462;2023-04-25T00:44:13;3.47;;;2.00;;
72235;SDS011;60146;52.498;13.462;2023-04-25T00:46:41;5.60;;;1.67;;
72235;SDS011;60146;52.498;13.462;2023-04-25T00:49:07;3.90;;;1.70;;
72235;SDS011;60146;52.498;13.462;2023-04-25T00:51:33;3.40;;;1.60;;
72235;SDS011;60146;52.498;13.462;2023-04-25T00:53:59;6.60;;;2.00;;
72235;SDS011;60146;52.498;13.462;2023-04-25T00:56:24;6.57;;;2.17;;
72235;SDS011;60146;52.498;13.462;2023-04-25T00:58:52;5.27;;;1.70;;
72235;SDS011;60146;52.498;13.462;2023-04-25T01:01:20;2.47;;;1.60;;
72235;SDS011;60146;52.498;13.462;2023-04-25T01:03:45;4.80;;;1.90;;
72235;SDS011;60146;52.498;13.462;2023-04-25T01:06:11;8.97;;;2.03;;
72235;SDS011;60146;52.498;13.462;2023-04-25T01:08:37;6.13;;;2.00;;
72235;SDS011;60146;52.498;13.462;2023-04-25T01:11:03;6.47;;;2.10;;
72235;SDS011;60146;52.498;13.462;2023-04-25T01:13:29;3.10;;;2.07;;
72235;SDS011;60146;52.498;13.462;2023-04-25T01:15:56;5.10;;;2.03;;
72235;SDS011;60146;52.498;13.462;2023-04-25T01:18:22;5.00;;;1.73;;
72235;SDS011;60146;52.498;13.462;2023-04-25T01:20:47;4.37;;;1.77;;
72235;SDS011;60146;52.498;13.462;2023-04-25T01:23:16;5.87;;;2.10;;
72235;SDS011;60146;52.498;13.462;2023-04-25T01:25:42;5.50;;;2.03;;
72235;SDS011;60146;52.498;13.462;2023-04-25T01:28:07;6.73;;;1.97;;
72235;SDS011;60146;52.498;13.462;2023-04-25T01:30:33;6.37;;;2.07;;
72235;SDS011;60146;52.498;13.462;2023-04-25T01:32:59;4.03;;;2.03;;
72235;SDS011;60146;52.498;13.462;2023-04-25T01:35:25;5.67;;;1.90;;
72235;SDS011;60146;52.498;13.462;2023-04-25T01:37:51;8.57;;;1.90;;
72235;SDS011;60146;52.498;13.462;2023-04-25T01:40:17;4.10;;;1.90;;
72235;SDS011;60146;52.498;13.462;2023-04-25T01:42:44;5.03;;;1.93;;
72235;SDS011;60146;52.498;13.462;2023-04-25T03:06:00;6.33;;;2.13;;
72235;SDS011;60146;52.498;13.462;2023-04-25T03:08:26;7.13;;;2.60;;
72235;SDS011;60146;52.498;13.462;2023-04-25T03:10:54;6.80;;;2.60;;
72235;SDS011;60146;52.498;13.462;2023-04-25T03:13:20;6.40;;;2.97;;
72235;SDS011;60146;52.498;13.462;2023-04-25T03:15:46;5.50;;;2.40;;
72235;SDS011;60146;52.498;13.462;2023-04-25T03:18:11;8.03;;;2.90;;
72235;SDS011;60146;52.498;13.462;2023-04-25T03:20:36;5.10;;;2.50;;
72235;SDS011;60146;52.498;13.462;2023-04-25T03:23:02;7.47;;;2.80;;
72235;SDS011;60146;52.498;13.462;2023-04-25T03:25:27;8.10;;;2.97;;
72235;SDS011;60146;52.498;13.462;2023-04-25T03:27:52;6.63;;;3.00;;
72235;SDS011;60146;52.498;13.462;2023-04-25T03:30:18;7.50;;;2.77;;
72235;SDS011;60146;52.498;13.462;2023-04-25T03:32:43;6.37;;;2.90;;
72235;SDS011;60146;52.498;13.462;2023-04-25T03:35:08;9.70;;;2.83;;
72235;SDS011;60146;52.498;13.462;2023-04-25T03:37:34;8.13;;;3.10;;
72235;SDS011;60146;52.498;13.462;2023-04-25T03:39:59;7.57;;;3.17;;
72235;SDS011;60146;52.498;13.462;2023-04-25T03:42:25;6.60;;;2.60;;
72235;SDS011;60146;52.498;13.462;2023-04-25T03:44:51;8.57;;;3.20;;
72235;SDS011;60146;52.498;13.462;2023-04-25T03:47:16;7.83;;;3.00;;
72235;SDS011;60146;52.498;13.462;2023-04-25T03:49:42;6.77;;;3.17;;
72235;SDS011;60146;52.498;13.462;2023-04-25T03:52:07;9.87;;;2.97;;
72235;SDS011;60146;52.498;13.462;2023-04-25T03:54:33;6.97;;;2.83;;
72235;SDS011;60146;52.498;13.462;2023-04-25T03:56:58;6.07;;;2.87;;
72235;SDS011;60146;52.498;13.462;2023-04-25T03:59:23;6.37;;;2.87;;
72235;SDS011;60146;52.498;13.462;2023-04-25T04:01:50;7.13;;;2.70;;
72235;SDS011;60146;52.498;13.462;2023-04-25T04:04:15;9.73;;;2.50;;
72235;SDS011;60146;52.498;13.462;2023-04-25T04:06:40;5.47;;;2.97;;
72235;SDS011;60146;52.498;13.462;2023-04-25T04:09:07;9.77;;;3.10;;
72235;SDS011;60146;52.498;13.462;2023-04-25T04:11:35;7.67;;;2.77;;
72235;SDS011;60146;52.498;13.462;2023-04-25T04:14:03;8.37;;;2.87;;
72235;SDS011;60146;52.498;13.462;2023-04-25T04:16:29;9.57;;;2.90;;
72235;SDS011;60146;52.498;13.462;2023-04-25T04:18:54;7.83;;;2.90;;
72235;SDS011;60146;52.498;13.462;2023-04-25T04:21:19;5.20;;;2.50;;
72235;SDS011;60146;52.498;13.462;2023-04-25T04:23:45;7.67;;;2.80;;
72235;SDS011;60146;52.498;13.462;2023-04-25T04:26:11;5.53;;;2.73;;
72235;SDS011;60146;52.498;13.462;2023-04-25T04:28:38;6.97;;;2.90;;
72235;SDS011;60146;52.498;13.462;2023-04-25T04:31:03;9.57;;;3.10;;
72235;SDS011;60146;52.498;13.462;2023-04-25T04:33:28;6.00;;;2.67;;
72235;SDS011;60146;52.498;13.462;2023-04-25T04:35:55;7.87;;;3.40;;
72235;SDS011;60146;52.498;13.462;2023-04-25T04:38:21;6.10;;;2.40;;
72235;SDS011;60146;52.498;13.462;2023-04-25T04:40:46;7.60;;;2.87;;
72235;SDS011;60146;52.498;13.462;2023-04-25T04:43:12;8.43;;;2.70;;
72235;SDS011;60146;52.498;13.462;2023-04-25T04:45:39;5.07;;;2.60;;
72235;SDS011;60146;52.498;13.462;2023-04-25T04:48:06;9.57;;;2.80;;
72235;SDS011;60146;52.498;13.462;2023-04-25T04:50:32;5.70;;;2.80;;
72235;SDS011;60146;52.498;13.462;2023-04-25T04:52:58;8.03;;;2.53;;
72235;SDS011;60146;52.498;13.462;2023-04-25T04:55:24;8.37;;;2.80;;
72235;SDS011;60146;52.498;13.462;2023-04-25T04:57:50;6.70;;;2.50;;
72235;SDS011;60146;52.498;13.462;2023-04-25T05:00:15;10.20;;;3.23;;
72235;SDS011;60146;52.498;13.462;2023-04-25T05:02:41;7.73;;;2.87;;
72235;SDS011;60146;52.498;13.462;2023-04-25T05:05:07;4.73;;;2.30;;
72235;SDS011;60146;52.498;13.462;2023-04-25T05:07:33;8.63;;;2.57;;
72235;SDS011;60146;52.498;13.462;2023-04-25T05:09:58;8.80;;;2.90;;
72235;SDS011;60146;52.498;13.462;2023-04-25T05:12:24;8.93;;;3.07;;
72235;SDS011;60146;52.498;13.462;2023-04-25T05:14:49;7.03;;;2.73;;
72235;SDS011;60146;52.498;13.462;2023-04-25T05:17:15;5.67;;;2.47;;
72235;SDS011;60146;52.498;13.462;2023-04-25T05:19:40;5.70;;;2.87;;
72235;SDS011;60146;52.498;13.462;2023-04-25T05:22:06;6.07;;;2.60;;
72235;SDS011;60146;52.498;13.462;2023-04-25T05:24:31;7.10;;;3.00;;
72235;SDS011;60146;52.498;13.462;2023-04-25T05:26:57;10.67;;;2.83;;
72235;SDS011;60146;52.498;13.462;2023-04-25T05:29:22;7.17;;;2.70;;
72235;SDS011;60146;52.498;13.462;2023-04-25T05:31:47;7.23;;;2.23;;
72235;SDS011;60146;52.498;13.462;2023-04-25T05:34:13;6.67;;;2.80;;
72235;SDS011;60146;52.498;13.462;2023-04-25T05:36:38;9.50;;;2.70;;
72235;SDS011;60146;52.498;13.462;2023-04-25T05:39:04;7.80;;;2.73;;
72235;SDS011;60146;52.498;13.462;2023-04-25T05:41:31;8.03;;;3.13;;
72235;SDS011;60146;52.498;13.462;2023-04-25T05:43:56;7.03;;;3.10;;
72235;SDS011;60146;52.498;13.462;2023-04-25T05:46:21;13.50;;;4.23;;
72235;SDS011;60146;52.498;13.462;2023-04-25T05:48:47;8.63;;;3.07;;
72235;SDS011;60146;52.498;13.462;2023-04-25T05:51:12;8.67;;;2.60;;
72235;SDS011;60146;52.498;13.462;2023-04-25T05:53:38;8.33;;;2.77;;
72235;SDS011;60146;52.498;13.462;2023-04-25T05:56:03;7.33;;;3.20;;
72235;SDS011;60146;52.498;13.462;2023-04-25T05:58:28;8.83;;;3.33;;
72235;SDS011;60146;52.498;13.462;2023-04-25T06:00:54;10.30;;;3.13;;
72235;SDS011;60146;52.498;13.462;2023-04-25T06:03:20;13.33;;;3.40;;
72235;SDS011;60146;52.498;13.462;2023-04-25T06:05:46;6.83;;;3.00;;
72235;SDS011;60146;52.498;13.462;2023-04-25T06:08:11;9.37;;;3.17;;
72235;SDS011;60146;52.498;13.462;2023-04-25T06:10:36;6.83;;;2.87;;
72235;SDS011;60146;52.498;13.462;2023-04-25T06:13:17;8.50;;;3.60;;
72235;SDS011;60146;52.498;13.462;2023-04-25T06:15:44;9.03;;;3.10;;
72235;SDS011;60146;52.498;13.462;2023-04-25T06:18:09;7.17;;;2.93;;
72235;SDS011;60146;52.498;13.462;2023-04-25T06:20:35;6.27;;;3.00;;
72235;SDS011;60146;52.498;13.462;2023-04-25T06:23:00;12.37;;;3.40;;
72235;SDS011;60146;52.498;13.462;2023-04-25T06:25:26;8.67;;;3.23;;
72235;SDS011;60146;52.498;13.462;2023-04-25T06:27:51;9.27;;;3.57;;
72235;SDS011;60146;52.498;13.462;2023-04-25T06:30:17;6.43;;;3.10;;
72235;SDS011;60146;52.498;13.462;2023-04-25T06:32:47;9.40;;;3.20;;
72235;SDS011;60146;52.498;13.462;2023-04-25T06:35:12;13.60;;;3.70;;
72235;SDS011;60146;52.498;13.462;2023-04-25T06:37:38;7.83;;;3.23;;
72235;SDS011;60146;52.498;13.462;2023-04-25T06:40:03;10.13;;;3.37;;
72235;SDS011;60146;52.498;13.462;2023-04-25T06:42:29;6.57;;;3.10;;
72235;SDS011;60146;52.498;13.462;2023-04-25T06:44:54;12.70;;;3.80;;
72235;SDS011;60146;52.498;13.462;2023-04-25T06:47:20;9.03;;;3.50;;
72235;SDS011;60146;52.498;13.462;2023-04-25T06:49:52;8.33;;;3.67;;
72235;SDS011;60146;52.498;13.462;2023-04-25T06:52:17;12.10;;;3.80;;
72235;SDS011;60146;52.498;13.462;2023-04-25T06:54:43;10.43;;;3.63;;
72235;SDS011;60146;52.498;13.462;2023-04-25T06:57:09;9.07;;;3.30;;
72235;SDS011;60146;52.498;13.462;2023-04-25T06:59:34;9.87;;;2.90;;
72235;SDS011;60146;52.498;13.462;2023-04-25T07:02:00;8.30;;;3.07;;
72235;SDS011;60146;52.498;13.462;2023-04-25T07:04:25;7.77;;;3.00;;
72235;SDS011;60146;52.498;13.462;2023-04-25T07:06:50;7.73;;;2.87;;
72235;SDS011;60146;52.498;13.462;2023-04-25T07:09:16;8.83;;;3.30;;
72235;SDS011;60146;52.498;13.462;2023-04-25T07:11:41;10.03;;;3.30;;
72235;SDS011;60146;52.498;13.462;2023-04-25T07:14:06;9.40;;;3.50;;
72235;SDS011;60146;52.498;13.462;2023-04-25T07:16:32;7.23;;;3.20;;
72235;SDS011;60146;52.498;13.462;2023-04-25T07:18:57;9.97;;;3.20;;
72235;SDS011;60146;52.498;13.462;2023-04-25T07:21:24;10.00;;;2.97;;
72235;SDS011;60146;52.498;13.462;2023-04-25T07:23:50;5.77;;;3.10;;
72235;SDS011;60146;52.498;13.462;2023-04-25T07:26:16;7.93;;;3.17;;
72235;SDS011;60146;52.498;13.462;2023-04-25T07:28:41;7.07;;;2.77;;
72235;SDS011;60146;52.498;13.462;2023-04-25T07:31:07;11.10;;;2.67;;
72235;SDS011;60146;52.498;13.462;2023-04-25T07:33:33;7.40;;;2.83;;
72235;SDS011;60146;52.498;13.462;2023-04-25T07:35:58;6.97;;;2.67;;
72235;SDS011;60146;52.498;13.462;2023-04-25T07:38:24;7.03;;;2.90;;
72235;SDS011;60146;52.498;13.462;2023-04-25T07:40:49;9.80;;;3.20;;
72235;SDS011;60146;52.498;13.462;2023-04-25T07:43:15;8.20;;;2.60;;
72235;SDS011;60146;52.498;13.462;2023-04-25T07:45:45;6.70;;;2.77;;
72235;SDS011;60146;52.498;13.462;2023-04-25T07:48:11;10.33;;;3.30;;
72235;SDS011;60146;52.498;13.462;2023-04-25T07:50:36;6.03;;;2.53;;
72235;SDS011;60146;52.498;13.462;2023-04-25T07:53:02;7.80;;;3.33;;
72235;SDS011;60146;52.498;13.462;2023-04-25T07:55:28;6.57;;;2.70;;
72235;SDS011;60146;52.498;13.462;2023-04-25T07:57:53;11.07;;;2.90;;
72235;SDS011;60146;52.498;13.462;2023-04-25T08:00:18;9.33;;;2.60;;
72235;SDS011;60146;52.498;13.462;2023-04-25T08:02:44;6.40;;;2.40;;
72235;SDS011;60146;52.498;13.462;2023-04-25T08:05:09;12.20;;;3.30;;
72235;SDS011;60146;52.498;13.462;2023-04-25T08:07:39;12.63;;;2.90;;
72235;SDS011;60146;52.498;13.462;2023-04-25T08:10:05;8.40;;;2.73;;
72235;SDS011;60146;52.498;13.462;2023-04-25T08:12:31;10.23;;;2.83;;
72235;SDS011;60146;52.498;13.462;2023-04-25T08:14:57;13.23;;;2.67;;
72235;SDS011;60146;52.498;13.462;2023-04-25T08:17:22;14.30;;;3.03;;
72235;SDS011;60146;52.498;13.462;2023-04-25T08:19:47;14.57;;;2.73;;
72235;SDS011;60146;52.498;13.462;2023-04-25T08:22:13;11.10;;;2.73;;
72235;SDS011;60146;52.498;13.462;2023-04-25T08:24:39;10.73;;;2.80;;
72235;SDS011;60146;52.498;13.462;2023-04-25T08:27:04;16.33;;;2.73;;
72235;SDS011;60146;52.498;13.462;2023-04-25T08:29:31;12.77;;;2.63;;
72235;SDS011;60146;52.498;13.462;2023-04-25T08:31:56;8.87;;;2.10;;
72235;SDS011;60146;52.498;13.462;2023-04-25T08:34:22;9.97;;;2.27;;
72235;SDS011;60146;52.498;13.462;2023-04-25T08:36:47;22.23;;;2.97;;
72235;SDS011;60146;52.498;13.462;2023-04-25T08:39:12;12.87;;;2.50;;
72235;SDS011;60146;52.498;13.462;2023-04-25T08:41:38;10.33;;;2.53;;
72235;SDS011;60146;52.498;13.462;2023-04-25T08:44:05;13.20;;;3.07;;
72235;SDS011;60146;52.498;13.462;2023-04-25T08:46:34;12.73;;;2.20;;
72235;SDS011;60146;52.498;13.462;2023-04-25T08:49:02;10.47;;;2.30;;
72235;SDS011;60146;52.498;13.462;2023-04-25T08:51:28;7.37;;;2.37;;
72235;SDS011;60146;52.498;13.462;2023-04-25T08:53:56;10.00;;;2.53;;
72235;SDS011;60146;52.498;13.462;2023-04-25T08:56:41;11.57;;;2.63;;
72235;SDS011;60146;52.498;13.462;2023-04-25T08:59:10;10.30;;;2.87;;
72235;SDS011;60146;52.498;13.462;2023-04-25T09:01:36;6.50;;;2.30;;
72235;SDS011;60146;52.498;13.462;2023-04-25T09:04:01;8.53;;;2.17;;
72235;SDS011;60146;52.498;13.462;2023-04-25T09:06:28;16.07;;;2.30;;
72235;SDS011;60146;52.498;13.462;2023-04-25T09:08:54;7.77;;;2.10;;
72235;SDS011;60146;52.498;13.462;2023-04-25T09:11:19;7.50;;;2.03;;
72235;SDS011;60146;52.498;13.462;2023-04-25T09:13:44;14.83;;;2.13;;
72235;SDS011;60146;52.498;13.462;2023-04-25T09:16:10;10.97;;;2.13;;
72235;SDS011;60146;52.498;13.462;2023-04-25T09:18:35;13.60;;;2.17;;
72235;SDS011;60146;52.498;13.462;2023-04-25T09:21:08;12.00;;;2.10;;
72235;SDS011;60146;52.498;13.462;2023-04-25T09:23:41;6.47;;;1.57;;
72235;SDS011;60146;52.498;13.462;2023-04-25T09:26:09;7.37;;;1.53;;
72235;SDS011;60146;52.498;13.462;2023-04-25T09:28:34;5.87;;;1.60;;
72235;SDS011;60146;52.498;13.462;2023-04-25T09:31:00;12.47;;;2.20;;
72235;SDS011;60146;52.498;13.462;2023-04-25T09:33:27;9.43;;;1.75;;
72235;SDS011;60146;52.498;13.462;2023-04-25T09:35:54;7.30;;;1.70;;
72235;SDS011;60146;52.498;13.462;2023-04-25T09:38:27;6.63;;;1.85;;
72235;SDS011;60146;52.498;13.462;2023-04-25T09:40:55;9.07;;;1.90;;
72235;SDS011;60146;52.498;13.462;2023-04-25T09:43:21;6.70;;;1.70;;
72235;SDS011;60146;52.498;13.462;2023-04-25T09:45:48;7.03;;;2.03;;
72235;SDS011;60146;52.498;13.462;2023-04-25T09:48:17;7.90;;;2.10;;
72235;SDS011;60146;52.498;13.462;2023-04-25T09:53:30;8.63;;;2.17;;
72235;SDS011;60146;52.498;13.462;2023-04-25T09:55:57;4.90;;;1.70;;
72235;SDS011;60146;52.498;13.462;2023-04-25T09:58:25;3.67;;;1.60;;
72235;SDS011;60146;52.498;13.462;2023-04-25T10:00:53;9.50;;;1.67;;
72235;SDS011;60146;52.498;13.462;2023-04-25T10:03:24;10.83;;;1.97;;
72235;SDS011;60146;52.498;13.462;2023-04-25T10:05:51;4.93;;;1.50;;
72235;SDS011;60146;52.498;13.462;2023-04-25T10:08:18;7.80;;;1.50;;
72235;SDS011;60146;52.498;13.462;2023-04-25T10:10:44;5.93;;;1.80;;
72235;SDS011;60146;52.498;13.462;2023-04-25T10:13:13;9.03;;;1.90;;
72235;SDS011;60146;52.498;13.462;2023-04-25T10:15:39;10.40;;;2.03;;
72235;SDS011;60146;52.498;13.462;2023-04-25T10:18:06;5.13;;;1.50;;
72235;SDS011;60146;52.498;13.462;2023-04-25T10:20:32;12.83;;;2.03;;
72235;SDS011;60146;52.498;13.462;2023-04-25T10:22:58;6.73;;;1.73;;
72235;SDS011;60146;52.498;13.462;2023-04-25T10:25:41;5.57;;;1.50;;
72235;SDS011;60146;52.498;13.462;2023-04-25T10:28:07;5.30;;;1.40;;
72235;SDS011;60146;52.498;13.462;2023-04-25T10:30:32;7.87;;;1.40;;
72235;SDS011;60146;52.498;13.462;2023-04-25T10:32:58;7.40;;;2.27;;
72235;SDS011;60146;52.498;13.462;2023-04-25T10:35:25;10.80;;;1.90;;
72235;SDS011;60146;52.498;13.462;2023-04-25T10:38:05;6.40;;;1.70;;
72235;SDS011;60146;52.498;13.462;2023-04-25T10:40:34;7.77;;;1.90;;
72235;SDS011;60146;52.498;13.462;2023-04-25T10:45:56;5.97;;;1.73;;
72235;SDS011;60146;52.498;13.462;2023-04-25T10:48:28;10.83;;;2.37;;
72235;SDS011;60146;52.498;13.462;2023-04-25T10:51:08;7.83;;;2.23;;
72235;SDS011;60146;52.498;13.462;2023-04-25T10:53:34;9.03;;;1.70;;
72235;SDS011;60146;52.498;13.462;2023-04-25T10:56:00;8.90;;;1.60;;
72235;SDS011;60146;52.498;13.462;2023-04-25T10:58:25;6.03;;;1.70;;
72235;SDS011;60146;52.498;13.462;2023-04-25T11:00:51;4.73;;;1.60;;
72235;SDS011;60146;52.498;13.462;2023-04-25T11:03:16;6.43;;;1.57;;
72235;SDS011;60146;52.498;13.462;2023-04-25T11:05:42;9.30;;;1.70;;
72235;SDS011;60146;52.498;13.462;2023-04-25T11:08:11;12.93;;;2.00;;
72235;SDS011;60146;52.498;13.462;2023-04-25T11:10:36;9.33;;;1.90;;
72235;SDS011;60146;52.498;13.462;2023-04-25T11:13:04;10.43;;;1.87;;
72235;SDS011;60146;52.498;13.462;2023-04-25T11:15:30;9.73;;;1.80;;
72235;SDS011;60146;52.498;13.462;2023-04-25T11:17:55;6.73;;;1.83;;
72235;SDS011;60146;52.498;13.462;2023-04-25T11:20:21;6.20;;;1.90;;
72235;SDS011;60146;52.498;13.462;2023-04-25T11:22:47;5.80;;;1.50;;
72235;SDS011;60146;52.498;13.462;2023-04-25T11:25:14;10.47;;;1.97;;
72235;SDS011;60146;52.498;13.462;2023-04-25T11:27:53;4.27;;;1.70;;
72235;SDS011;60146;52.498;13.462;2023-04-25T11:30:21;7.53;;;1.85;;
72235;SDS011;60146;52.498;13.462;2023-04-25T11:32:47;8.73;;;2.10;;
72235;SDS011;60146;52.498;13.462;2023-04-25T11:35:13;8.80;;;1.40;;
72235;SDS011;60146;52.498;13.462;2023-04-25T11:37:39;7.27;;;1.60;;
72235;SDS011;60146;52.498;13.462;2023-04-25T11:40:05;13.17;;;2.90;;
72235;SDS011;60146;52.498;13.462;2023-04-25T11:42:32;4.17;;;1.47;;
72235;SDS011;60146;52.498;13.462;2023-04-25T11:44:58;4.10;;;1.43;;
72235;SDS011;60146;52.498;13.462;2023-04-25T11:47:28;5.23;;;1.47;;
72235;SDS011;60146;52.498;13.462;2023-04-25T11:49:54;9.17;;;1.70;;
72235;SDS011;60146;52.498;13.462;2023-04-25T11:52:20;6.37;;;1.67;;
72235;SDS011;60146;52.498;13.462;2023-04-25T11:54:45;6.60;;;1.53;;
72235;SDS011;60146;52.498;13.462;2023-04-25T11:57:11;3.67;;;1.37;;
72235;SDS011;60146;52.498;13.462;2023-04-25T11:59:36;6.27;;;1.50;;
72235;SDS011;60146;52.498;13.462;2023-04-25T12:02:02;7.87;;;1.27;;
72235;SDS011;60146;52.498;13.462;2023-04-25T12:04:29;3.07;;;1.40;;
72235;SDS011;60146;52.498;13.462;2023-04-25T12:06:55;5.83;;;1.60;;
72235;SDS011;60146;52.498;13.462;2023-04-25T12:09:27;3.37;;;1.30;;
72235;SDS011;60146;52.498;13.462;2023-04-25T12:11:54;11.83;;;1.80;;
72235;SDS011;60146;52.498;13.462;2023-04-25T12:14:27;5.67;;;1.53;;
72235;SDS011;60146;52.498;13.462;2023-04-25T12:16:55;6.83;;;1.60;;
72235;SDS011;60146;52.498;13.462;2023-04-25T12:19:22;5.97;;;1.77;;
72235;SDS011;60146;52.498;13.462;2023-04-25T12:21:48;5.83;;;1.43;;
72235;SDS011;60146;52.498;13.462;2023-04-25T12:24:24;5.13;;;1.50;;
72235;SDS011;60146;52.498;13.462;2023-04-25T12:27:04;7.27;;;1.43;;
72235;SDS011;60146;52.498;13.462;2023-04-25T12:29:31;4.70;;;1.42;;
72235;SDS011;60146;52.498;13.462;2023-04-25T12:31:57;5.13;;;1.30;;
72235;SDS011;60146;52.498;13.462;2023-04-25T12:34:23;4.30;;;1.30;;
72235;SDS011;60146;52.498;13.462;2023-04-25T12:36:50;5.63;;;1.93;;
72235;SDS011;60146;52.498;13.462;2023-04-25T12:39:16;4.80;;;1.70;;
72235;SDS011;60146;52.498;13.462;2023-04-25T12:41:43;5.80;;;1.80;;
72235;SDS011;60146;52.498;13.462;2023-04-25T12:44:09;4.73;;;1.40;;
72235;SDS011;60146;52.498;13.462;2023-04-25T12:46:35;5.73;;;1.60;;
72235;SDS011;60146;52.498;13.462;2023-04-25T12:49:01;4.93;;;1.30;;
72235;SDS011;60146;52.498;13.462;2023-04-25T12:51:28;5.13;;;1.30;;
72235;SDS011;60146;52.498;13.462;2023-04-25T12:53:53;6.53;;;1.60;;
72235;SDS011;60146;52.498;13.462;2023-04-25T12:56:19;6.13;;;1.40;;
72235;SDS011;60146;52.498;13.462;2023-04-25T12:58:44;5.57;;;1.57;;
72235;SDS011;60146;52.498;13.462;2023-04-25T13:01:10;3.80;;;1.43;;
72235;SDS011;60146;52.498;13.462;2023-04-25T13:03:37;7.67;;;1.80;;
72235;SDS011;60146;52.498;13.462;2023-04-25T13:06:02;4.03;;;1.20;;
72235;SDS011;60146;52.498;13.462;2023-04-25T13:08:28;9.33;;;1.50;;
72235;SDS011;60146;52.498;13.462;2023-04-25T13:10:53;9.20;;;1.60;;
72235;SDS011;60146;52.498;13.462;2023-04-25T13:13:18;3.77;;;1.13;;
72235;SDS011;60146;52.498;13.462;2023-04-25T13:15:44;5.50;;;1.40;;
72235;SDS011;60146;52.498;13.462;2023-04-25T13:18:09;2.90;;;0.90;;
72235;SDS011;60146;52.498;13.462;2023-04-25T13:20:35;4.60;;;1.10;;
72235;SDS011;60146;52.498;13.462;2023-04-25T13:23:00;4.13;;;0.83;;
72235;SDS011;60146;52.498;13.462;2023-04-25T13:25:25;2.37;;;0.90;;
72235;SDS011;60146;52.498;13.462;2023-04-25T13:27:51;2.75;;;0.98;;
72235;SDS011;60146;52.498;13.462;2023-04-25T13:30:16;4.13;;;0.88;;
72235;SDS011;60146;52.498;13.462;2023-04-25T13:32:42;4.07;;;1.52;;
72235;SDS011;60146;52.498;13.462;2023-04-25T13:35:08;5.20;;;1.17;;
72235;SDS011;60146;52.498;13.462;2023-04-25T13:37:38;3.80;;;1.10;;
72235;SDS011;60146;52.498;13.462;2023-04-25T13:40:05;9.95;;;1.70;;
72235;SDS011;60146;52.498;13.462;2023-04-25T13:42:34;5.22;;;1.27;;
72235;SDS011;60146;52.498;13.462;2023-04-25T13:45:00;4.25;;;1.45;;
72235;SDS011;60146;52.498;13.462;2023-04-25T13:47:25;5.87;;;1.20;;
72235;SDS011;60146;52.498;13.462;2023-04-25T13:49:51;6.10;;;1.53;;
72235;SDS011;60146;52.498;13.462;2023-04-25T13:52:17;3.80;;;1.17;;
72235;SDS011;60146;52.498;13.462;2023-04-25T13:54:42;4.57;;;1.40;;
72235;SDS011;60146;52.498;13.462;2023-04-25T13:57:07;5.07;;;1.20;;
72235;SDS011;60146;52.498;13.462;2023-04-25T13:59:33;3.53;;;1.07;;
72235;SDS011;60146;52.498;13.462;2023-04-25T14:01:58;2.53;;;1.20;;
72235;SDS011;60146;52.498;13.462;2023-04-25T14:04:24;6.47;;;1.20;;
72235;SDS011;60146;52.498;13.462;2023-04-25T14:06:50;6.60;;;1.30;;
72235;SDS011;60146;52.498;13.462;2023-04-25T14:09:16;5.57;;;1.53;;
72235;SDS011;60146;52.498;13.462;2023-04-25T14:11:41;3.67;;;1.30;;
72235;SDS011;60146;52.498;13.462;2023-04-25T14:14:07;4.87;;;1.30;;
72235;SDS011;60146;52.498;13.462;2023-04-25T14:16:33;5.93;;;1.80;;
72235;SDS011;60146;52.498;13.462;2023-04-25T14:18:58;3.90;;;1.33;;
72235;SDS011;60146;52.498;13.462;2023-04-25T14:21:24;4.23;;;1.17;;
72235;SDS011;60146;52.498;13.462;2023-04-25T14:23:50;6.37;;;1.50;;
72235;SDS011;60146;52.498;13.462;2023-04-25T14:26:15;7.00;;;1.90;;
72235;SDS011;60146;52.498;13.462;2023-04-25T14:28:41;5.07;;;1.20;;
72235;SDS011;60146;52.498;13.462;2023-04-25T14:31:06;4.30;;;1.30;;
72235;SDS011;60146;52.498;13.462;2023-04-25T14:33:32;4.23;;;1.00;;
72235;SDS011;60146;52.498;13.462;2023-04-25T14:35:57;4.00;;;1.10;;
72235;SDS011;60146;52.498;13.462;2023-04-25T14:38:23;4.73;;;1.40;;
72235;SDS011;60146;52.498;13.462;2023-04-25T14:40:50;4.47;;;1.47;;
72235;SDS011;60146;52.498;13.462;2023-04-25T14:43:16;7.63;;;1.30;;
72235;SDS011;60146;52.498;13.462;2023-04-25T14:45:41;4.87;;;1.23;;
72235;SDS011;60146;52.498;13.462;2023-04-25T14:48:06;5.40;;;1.30;;
72235;SDS011;60146;52.498;13.462;2023-04-25T14:50:32;5.40;;;1.40;;
72235;SDS011;60146;52.498;13.462;2023-04-25T14:52:57;5.57;;;1.33;;
72235;SDS011;60146;52.498;13.462;2023-04-25T14:55:25;6.67;;;1.37;;
72235;SDS011;60146;52.498;13.462;2023-04-25T14:57:52;5.70;;;1.27;;
72235;SDS011;60146;52.498;13.462;2023-04-25T15:00:18;8.13;;;1.57;;
72235;SDS011;60146;52.498;13.462;2023-04-25T15:02:45;8.33;;;2.07;;
72235;SDS011;60146;52.498;13.462;2023-04-25T15:05:11;3.83;;;1.17;;
72235;SDS011;60146;52.498;13.462;2023-04-25T15:07:37;3.60;;;1.17;;
72235;SDS011;60146;52.498;13.462;2023-04-25T15:10:04;8.77;;;1.57;;
72235;SDS011;60146;52.498;13.462;2023-04-25T15:12:30;6.80;;;1.33;;
72235;SDS011;60146;52.498;13.462;2023-04-25T15:14:56;5.23;;;1.10;;
72235;SDS011;60146;52.498;13.462;2023-04-25T15:17:21;3.20;;;1.10;;
72235;SDS011;60146;52.498;13.462;2023-04-25T15:19:46;5.07;;;1.10;;
72235;SDS011;60146;52.498;13.462;2023-04-25T15:22:12;4.30;;;0.97;;
72235;SDS011;60146;52.498;13.462;2023-04-25T15:24:38;4.73;;;1.20;;
72235;SDS011;60146;52.498;13.462;2023-04-25T15:27:03;6.10;;;1.60;;
72235;SDS011;60146;52.498;13.462;2023-04-25T15:29:29;3.63;;;1.13;;
72235;SDS011;60146;52.498;13.462;2023-04-25T15:31:55;3.23;;;1.10;;
72235;SDS011;60146;52.498;13.462;2023-04-25T15:34:20;4.47;;;1.23;;
72235;SDS011;60146;52.498;13.462;2023-04-25T15:36:46;3.57;;;1.27;;
72235;SDS011;60146;52.498;13.462;2023-04-25T15:39:11;4.63;;;1.07;;
72235;SDS011;60146;52.498;13.462;2023-04-25T15:41:36;3.97;;;1.10;;
72235;SDS011;60146;52.498;13.462;2023-04-25T15:44:02;2.73;;;1.20;;
72235;SDS011;60146;52.498;13.462;2023-04-25T15:46:27;5.23;;;1.10;;
72235;SDS011;60146;52.498;13.462;2023-04-25T15:48:55;3.40;;;1.17;;
72235;SDS011;60146;52.498;13.462;2023-04-25T15:51:20;4.67;;;0.80;;
72235;SDS011;60146;52.498;13.462;2023-04-25T15:53:46;4.10;;;1.00;;